Time;durP1;ratioP1;P1;durP2;ratioP2;P2;SDS_P1;SDS_P2;PMS_P1;PMS_P2;Temp;Humidity;BMP_temperature;BMP_pressure;BME280_temperature;BME280_humidity;BME280_pressure;Samples;Min_cycle;Max_cycle;Signal;HPM_P1;HPM_P2
2023/08/09 00:02:22;;;;;;;0.60;0.60;;;;;;;14.52;94.67;97160.56;5044660;28;20478;-59
2023/08/09 00:04:49;;;;;;;0.60;0.60;;;;;;;14.22;94.65;97136.91;5043239;28;20055;-60
2023/08/09 00:07:15;;;;;;;0.60;0.60;;;;;;;14.41;94.68;97167.28;5044924;28;20071;-61
2023/08/09 00:09:42;;;;;;;0.60;0.60;;;;;;;13.98;94.94;97084.66;5044787;28;20106;-59
2023/08/09 00:12:09;;;;;;;0.60;0.60;;;;;;;13.90;97.34;97169.34;5044947;28;20431;-59
2023/08/09 00:14:35;;;;;;;0.57;0.57;;;;;;;14.12;97.26;97171.06;5045150;28;20056;-59
2023/08/09 00:17:02;;;;;;;0.50;0.50;;;;;;;14.25;96.98;97169.59;5044903;28;20049;-59
2023/08/09 00:19:30;;;;;;;0.60;0.60;;;;;;;13.98;98.15;97115.31;5044198;28;20511;-59
2023/08/09 00:21:56;;;;;;;0.60;0.60;;;;;;;14.41;97.04;97178.44;5042511;28;20049;-59
2023/08/09 00:24:23;;;;;;;0.60;0.60;;;;;;;14.61;96.44;97171.31;5043058;28;20056;-60
2023/08/09 00:26:50;;;;;;;0.60;0.60;;;;;;;14.70;94.38;97163.41;5044745;28;20343;-59
2023/08/09 00:29:17;;;;;;;0.60;0.60;;;;;;;14.32;94.07;97113.91;5044027;28;20049;-60
2023/08/09 00:31:43;;;;;;;0.60;0.60;;;;;;;14.78;94.04;97176.16;5043272;28;20056;-60
2023/08/09 00:34:10;;;;;;;0.60;0.60;;;;;;;14.75;92.62;97166.59;5042836;28;20087;-60
2023/08/09 00:36:37;;;;;;;0.60;0.60;;;;;;;14.62;93.76;97173.72;5043069;28;20048;-60
2023/08/09 00:39:06;;;;;;;0.60;0.60;;;;;;;14.62;92.62;97167.38;5043116;28;20515;-60
2023/08/09 00:41:33;;;;;;;0.60;0.60;;;;;;;14.63;94.18;97157.78;5042775;28;20140;-60
2023/08/09 00:44:01;;;;;;;0.60;0.60;;;;;;;14.51;93.26;97155.38;5059456;28;20064;-59
2023/08/09 00:46:28;;;;;;;0.60;0.60;;;;;;;14.16;94.55;97116.19;5062873;28;20049;-60
2023/08/09 00:48:54;;;;;;;0.60;0.60;;;;;;;14.45;94.24;97159.72;5062906;28;20052;-60
2023/08/09 00:51:21;;;;;;;0.60;0.60;;;;;;;14.54;93.73;97162.94;5078258;28;20865;-60
2023/08/09 00:53:48;;;;;;;0.60;0.60;;;;;;;14.44;94.16;97155.34;5063295;28;20525;-60
2023/08/09 00:56:15;;;;;;;0.57;0.57;;;;;;;14.38;92.88;97160.50;5063091;28;20519;-59
2023/08/09 00:58:41;;;;;;;0.50;0.50;;;;;;;14.43;91.93;97159.31;5063111;28;20051;-60
2023/08/09 01:01:08;;;;;;;0.60;0.60;;;;;;;13.94;94.66;97108.94;5063000;28;20056;-62
2023/08/09 01:03:35;;;;;;;0.60;0.60;;;;;;;14.17;95.15;97156.78;5078834;28;20105;-59
2023/08/09 01:06:26;;;;;;;0.50;0.50;;;;;;;14.16;94.79;97161.56;5061751;28;20091;-60
2023/08/09 01:09:16;;;;;;;0.60;0.60;;;;;;;14.13;95.41;97162.31;5043576;28;20059;-59
2023/08/09 01:11:53;;;;;;;0.52;0.52;;;;;;;14.08;94.36;97156.34;5042988;28;20562;-61
2023/08/09 01:14:22;;;;;;;0.50;0.50;;;;;;;13.98;95.50;97152.31;5043372;28;20446;-59
2023/08/09 01:16:53;;;;;;;0.57;0.57;;;;;;;13.98;95.95;97157.06;5041749;28;20091;-59
2023/08/09 01:19:23;;;;;;;0.50;0.50;;;;;;;13.95;96.87;97160.66;5042111;28;20064;-59
2023/08/09 01:21:50;;;;;;;0.50;0.50;;;;;;;13.79;93.81;97115.59;5043233;28;20060;-60
2023/08/09 01:24:17;;;;;;;0.55;0.55;;;;;;;13.75;93.38;97128.72;5041648;28;20059;-60
2023/08/09 01:26:44;;;;;;;0.50;0.50;;;;;;;14.04;95.12;97152.72;5043196;28;20048;-60
2023/08/09 01:29:10;;;;;;;0.60;0.60;;;;;;;14.11;95.44;97158.34;5042492;28;20534;-62
2023/08/09 01:31:37;;;;;;;0.50;0.50;;;;;;;14.21;93.78;97160.41;5042279;28;20064;-60
2023/08/09 01:34:04;;;;;;;0.60;0.60;;;;;;;13.95;93.40;97133.59;5043172;28;20055;-60
2023/08/09 01:36:36;;;;;;;0.50;0.50;;;;;;;14.13;95.86;97153.19;5042470;28;20045;-59
2023/08/09 01:39:10;;;;;;;0.60;0.60;;;;;;;13.54;93.45;97068.97;5040898;28;20064;-60
2023/08/09 01:41:38;;;;;;;0.50;0.50;;;;;;;14.08;93.72;97154.38;5042265;28;20064;-62
2023/08/09 01:44:07;;;;;;;0.60;0.60;;;;;;;14.05;92.52;97168.28;5056564;28;20052;-62
2023/08/09 01:46:35;;;;;;;0.50;0.50;;;;;;;13.93;92.99;97163.81;5062985;28;20056;-60
2023/08/09 01:49:13;;;;;;;0.50;0.50;;;;;;;13.59;93.12;97118.66;5062434;28;20543;-61
2023/08/09 01:51:40;;;;;;;0.60;0.60;;;;;;;13.70;94.69;97161.28;5062816;28;20153;-62
2023/08/09 01:54:08;;;;;;;0.50;0.50;;;;;;;13.44;95.05;97116.97;5062688;28;20052;-59
2023/08/09 01:56:35;;;;;;;0.50;0.50;;;;;;;13.74;95.25;97157.75;5062406;28;20052;-59
2023/08/09 01:59:04;;;;;;;0.57;0.57;;;;;;;13.70;95.71;97155.72;5062411;28;20048;-60
2023/08/09 02:01:31;;;;;;;0.50;0.50;;;;;;;13.59;96.34;97149.28;5062439;28;20075;-61
2023/08/09 02:03:58;;;;;;;0.50;0.50;;;;;;;13.67;97.47;97159.28;5062389;28;20052;-59
2023/08/09 02:06:25;;;;;;;0.50;0.50;;;;;;;13.73;96.48;97159.72;5061587;28;20055;-61
2023/08/09 02:08:52;;;;;;;0.50;0.50;;;;;;;13.72;95.13;97162.91;5077598;28;20537;-60
2023/08/09 02:11:18;;;;;;;0.50;0.50;;;;;;;13.66;94.86;97163.25;5077035;28;20055;-60
2023/08/09 02:13:45;;;;;;;0.50;0.50;;;;;;;13.28;95.83;97116.47;5077611;28;20054;-62
2023/08/09 02:16:12;;;;;;;0.60;0.60;;;;;;;13.57;95.57;97148.88;5061655;28;20505;-59
2023/08/09 02:18:39;;;;;;;0.50;0.50;;;;;;;13.64;96.76;97170.41;5077630;28;20052;-59
2023/08/09 02:21:05;;;;;;;0.60;0.60;;;;;;;13.67;96.56;97173.19;5061617;28;20048;-59
2023/08/09 02:23:32;;;;;;;0.60;0.60;;;;;;;13.63;95.63;97175.16;5077426;28;20060;-59
2023/08/09 02:25:59;;;;;;;0.60;0.60;;;;;;;13.16;95.47;97108.44;5061782;28;20056;-59
2023/08/09 02:28:26;;;;;;;0.60;0.60;;;;;;;13.53;95.94;97184.22;5061942;28;20414;-60
2023/08/09 02:30:53;;;;;;;0.60;0.60;;;;;;;13.64;95.43;97173.97;5062144;28;20059;-61
2023/08/09 02:33:20;;;;;;;0.52;0.52;;;;;;;13.46;95.34;97178.63;5077085;28;20098;-59
2023/08/09 02:35:58;;;;;;;0.60;0.60;;;;;;;13.28;94.97;97157.38;5061259;28;20064;-59
2023/08/09 02:38:28;;;;;;;0.50;0.50;;;;;;;13.43;95.90;97170.25;5061065;28;20098;-59
2023/08/09 02:40:55;;;;;;;0.50;0.50;;;;;;;13.49;96.35;97177.84;5060865;28;20056;-61
2023/08/09 02:43:26;;;;;;;0.50;0.50;;;;;;;13.49;95.26;97177.03;5053450;28;20056;-61
2023/08/09 02:45:53;;;;;;;0.50;0.50;;;;;;;13.43;95.61;97181.38;5041436;28;20059;-59
2023/08/09 02:48:21;;;;;;;0.50;0.50;;;;;;;12.86;94.21;97088.28;5039425;28;20061;-59
2023/08/09 02:50:47;;;;;;;0.50;0.50;;;;;;;12.94;95.85;97117.75;5041262;28;20111;-61
2023/08/09 02:53:15;;;;;;;0.60;0.60;;;;;;;12.85;95.31;97095.00;5040662;28;20049;-59
2023/08/09 02:55:42;;;;;;;0.55;0.55;;;;;;;13.42;95.21;97193.69;5040480;28;20060;-60
2023/08/09 02:58:09;;;;;;;0.50;0.50;;;;;;;13.34;95.95;97186.47;5040459;28;20525;-61
2023/08/09 03:00:36;;;;;;;0.50;0.50;;;;;;;12.97;97.05;97150.34;5040395;28;20040;-60
2023/08/09 03:03:06;;;;;;;0.60;0.60;;;;;;;13.37;95.93;97197.59;5040386;28;20440;-59
2023/08/09 03:05:32;;;;;;;0.50;0.50;;;;;;;13.30;96.59;97192.00;5039176;28;20053;-60
2023/08/09 03:07:59;;;;;;;0.52;0.52;;;;;;;13.21;96.45;97180.41;5040642;28;20583;-59
2023/08/09 03:10:26;;;;;;;0.50;0.50;;;;;;;13.33;97.42;97199.56;5039052;28;20057;-59
2023/08/09 03:12:53;;;;;;;0.60;0.60;;;;;;;13.30;98.81;97197.56;5039177;28;20090;-60
2023/08/09 03:15:21;;;;;;;0.50;0.50;;;;;;;13.34;99.22;97192.81;5040185;28;20045;-60
2023/08/09 03:17:49;;;;;;;0.50;0.50;;;;;;;12.89;97.20;97128.41;5040349;28;20057;-60
2023/08/09 03:20:17;;;;;;;0.50;0.50;;;;;;;13.06;98.17;97173.09;5040090;28;20681;-62
2023/08/09 03:22:48;;;;;;;0.60;0.60;;;;;;;13.17;97.06;97154.53;5041097;28;20435;-59
2023/08/09 03:25:15;;;;;;;0.50;0.50;;;;;;;13.54;97.12;97208.13;5043929;28;20057;-60
2023/08/09 03:27:42;;;;;;;0.50;0.50;;;;;;;13.57;97.33;97210.13;5043935;28;20044;-60
2023/08/09 03:30:10;;;;;;;0.50;0.50;;;;;;;13.67;97.84;97216.97;5043927;28;20049;-61
2023/08/09 03:32:36;;;;;;;0.50;0.50;;;;;;;13.70;96.32;97216.97;5043695;28;20049;-60
2023/08/09 03:35:05;;;;;;;0.50;0.50;;;;;;;13.60;96.19;97220.47;5041982;28;20056;-61
2023/08/09 03:37:31;;;;;;;0.50;0.50;;;;;;;13.76;96.79;97219.38;5042349;28;20049;-60
2023/08/09 03:39:58;;;;;;;0.52;0.52;;;;;;;13.83;95.56;97225.81;5042644;28;20138;-60
2023/08/09 03:42:25;;;;;;;0.60;0.60;;;;;;;13.90;95.04;97230.63;5043391;28;20056;-60
2023/08/09 03:44:53;;;;;;;0.60;0.60;;;;;;;13.34;95.43;97165.00;5062081;28;20062;-60
2023/08/09 03:47:20;;;;;;;0.60;0.60;;;;;;;13.96;94.35;97235.44;5079221;28;20578;-59
2023/08/09 03:49:46;;;;;;;0.60;0.60;;;;;;;13.99;93.10;97240.25;5079135;28;20723;-61
2023/08/09 03:52:13;;;;;;;0.60;0.60;;;;;;;13.96;93.84;97259.75;5063805;28;20043;-62
2023/08/09 03:54:39;;;;;;;0.50;0.50;;;;;;;13.60;94.56;97172.34;5063877;28;20236;-62
2023/08/09 03:57:06;;;;;;;0.60;0.60;;;;;;;13.22;93.68;97134.69;5063807;28;20049;-61
2023/08/09 03:59:33;;;;;;;0.50;0.50;;;;;;;14.08;94.52;97251.06;5080607;28;20045;-61
2023/08/09 04:02:00;;;;;;;0.60;0.60;;;;;;;14.21;91.98;97246.78;5063860;28;20058;-60
2023/08/09 04:04:27;;;;;;;0.60;0.60;;;;;;;14.08;92.38;97234.34;5044416;28;20049;-63
2023/08/09 04:06:55;;;;;;;0.63;0.63;;;;;;;14.33;92.19;97247.28;5043734;28;20041;-60
2023/08/09 04:09:21;;;;;;;0.60;0.60;;;;;;;14.42;92.81;97252.47;5043713;28;20049;-60
2023/08/09 04:11:48;;;;;;;0.55;0.55;;;;;;;13.95;92.23;97155.06;5043675;28;20077;-61
2023/08/09 04:14:15;;;;;;;0.60;0.60;;;;;;;14.65;89.88;97255.78;5043588;28;20697;-63
2023/08/09 04:16:42;;;;;;;0.60;0.60;;;;;;;14.64;89.75;97256.97;5043269;28;20430;-61
2023/08/09 04:19:08;;;;;;;0.60;0.60;;;;;;;14.50;89.94;97215.91;5042867;28;20049;-61
2023/08/09 04:21:35;;;;;;;0.68;0.68;;;;;;;14.83;89.16;97256.66;5041467;28;20441;-61
2023/08/09 04:24:02;;;;;;;0.60;0.60;;;;;;;14.88;87.76;97253.47;5041591;28;20045;-60
2023/08/09 04:26:29;;;;;;;0.60;0.60;;;;;;;15.02;86.81;97256.31;5043378;28;20060;-61
2023/08/09 04:28:56;;;;;;;0.70;0.70;;;;;;;14.97;87.87;97251.13;5044108;28;20045;-62
2023/08/09 04:31:23;;;;;;;0.60;0.60;;;;;;;15.08;87.05;97246.38;5043836;28;20067;-61
2023/08/09 04:33:51;;;;;;;0.60;0.60;;;;;;;15.24;86.66;97252.38;5043534;28;20060;-61
2023/08/09 04:36:18;;;;;;;0.60;0.60;;;;;;;15.29;86.49;97257.59;5042218;28;20495;-61
2023/08/09 04:38:46;;;;;;;0.60;0.60;;;;;;;15.32;87.08;97254.00;5043950;28;20063;-62
2023/08/09 04:41:13;;;;;;;0.70;0.70;;;;;;;15.41;87.53;97260.06;5043307;28;20061;-60
2023/08/09 04:43:43;;;;;;;0.60;0.60;;;;;;;14.89;88.60;97199.31;5049291;28;20048;-59
2023/08/09 04:46:13;;;;;;;0.70;0.70;;;;;;;15.49;88.25;97255.28;5063505;28;20064;-61
2023/08/09 04:48:41;;;;;;;0.60;0.60;;;;;;;15.74;86.07;97262.47;5063800;28;20048;-60
2023/08/09 04:51:09;;;;;;;0.60;0.60;;;;;;;15.48;86.93;97265.63;5063749;28;20418;-60
2023/08/09 04:53:36;;;;;;;0.70;0.70;;;;;;;15.64;86.17;97260.47;5079314;28;20055;-62
2023/08/09 04:56:03;;;;;;;0.60;0.60;;;;;;;15.45;85.10;97188.25;5063135;28;20342;-60
2023/08/09 04:58:30;;;;;;;0.60;0.60;;;;;;;15.99;85.11;97252.09;5049421;28;20057;-60
2023/08/09 05:00:58;;;;;;;0.70;0.70;;;;;;;15.77;84.55;97242.13;5042904;28;20045;-60
2023/08/09 05:03:25;;;;;;;0.60;0.60;;;;;;;16.16;83.57;97256.84;5042202;28;20089;-60
2023/08/09 05:05:51;;;;;;;0.70;0.70;;;;;;;16.34;80.16;97263.19;5041799;28;20523;-63
2023/08/09 05:08:18;;;;;;;0.70;0.70;;;;;;;16.50;80.05;97241.22;5040307;28;20573;-61
2023/08/09 05:10:45;;;;;;;0.70;0.70;;;;;;;16.30;78.96;97200.91;5041954;28;20484;-61
2023/08/09 05:13:11;;;;;;;0.70;0.70;;;;;;;16.88;77.54;97263.88;5041433;28;20045;-62
2023/08/09 05:15:38;;;;;;;0.70;0.70;;;;;;;16.63;77.06;97202.41;5041364;28;20562;-61
2023/08/09 05:18:05;;;;;;;0.80;0.80;;;;;;;16.93;77.02;97227.09;5041386;28;20498;-61
2023/08/09 05:20:32;;;;;;;0.80;0.80;;;;;;;17.44;75.70;97263.56;5041507;28;20045;-60
2023/08/09 05:22:59;;;;;;;0.80;0.80;;;;;;;17.58;75.75;97266.31;5041669;28;20053;-61
2023/08/09 05:25:26;;;;;;;0.77;0.77;;;;;;;17.80;74.60;97264.94;5039839;28;20063;-62
2023/08/09 05:27:52;;;;;;;0.70;0.70;;;;;;;17.90;73.41;97276.09;5041969;28;20053;-60
2023/08/09 05:30:20;;;;;;;0.80;0.80;;;;;;;17.79;72.87;97243.75;5041443;28;20060;-60
2023/08/09 05:32:48;;;;;;;0.80;0.80;;;;;;;18.19;72.89;97273.84;5041858;28;20080;-60
2023/08/09 05:35:14;;;;;;;0.70;0.70;;;;;;;18.32;73.00;97258.06;5041608;28;20589;-61
2023/08/09 05:37:41;;;;;;;0.70;0.70;;;;;;;18.76;71.20;97291.72;5042082;28;20437;-61
2023/08/09 05:40:09;;;;;;;0.80;0.80;;;;;;;18.45;69.64;97191.84;5049947;28;20048;-61
2023/08/09 05:42:36;;;;;;;0.80;0.80;;;;;;;17.35;69.57;96997.22;5042233;28;20059;-66
2023/08/09 05:45:04;;;;;;;0.77;0.77;;;;;;;18.94;68.78;97267.03;5014928;28;20890;-60
2023/08/09 05:47:30;;;;;;;0.80;0.80;;;;;;;19.34;67.71;97291.44;5023313;28;20060;-60
2023/08/09 05:49:57;;;;;;;0.80;0.80;;;;;;;19.38;66.82;97272.50;5050003;28;20045;-63
2023/08/09 05:52:24;;;;;;;0.80;0.80;;;;;;;19.68;65.66;97273.72;5052505;28;20051;-62
2023/08/09 05:54:51;;;;;;;0.70;0.70;;;;;;;19.66;65.70;97251.66;5053987;28;20161;-64
2023/08/09 05:57:17;;;;;;;0.70;0.70;;;;;;;19.88;65.56;97247.28;5056459;28;20052;-63
2023/08/09 05:59:45;;;;;;;0.90;0.90;;;;;;;19.73;63.95;97205.78;5052539;28;20075;-59
2023/08/09 06:02:11;;;;;;;0.80;0.80;;;;;;;20.39;63.59;97277.75;5048251;28;20084;-62
2023/08/09 06:04:38;;;;;;;0.80;0.80;;;;;;;20.56;63.02;97276.66;5038859;28;20579;-61
2023/08/09 06:07:05;;;;;;;0.90;0.90;;;;;;;20.63;62.26;97275.72;5050947;28;20139;-61
2023/08/09 06:09:31;;;;;;;0.90;0.90;;;;;;;20.63;62.88;97281.34;5039692;28;20045;-57
2023/08/09 06:11:58;;;;;;;0.80;0.80;;;;;;;20.58;62.75;97245.28;5041507;28;20279;-60
2023/08/09 06:14:25;;;;;;;0.90;0.90;;;;;;;21.02;61.68;97281.44;5039983;28;20055;-60
2023/08/09 06:16:51;;;;;;;0.80;0.80;;;;;;;21.16;62.58;97269.06;5045605;28;20537;-59
2023/08/09 06:19:18;;;;;;;0.80;0.80;;;;;;;20.72;64.00;97194.31;5051104;28;20156;-60
2023/08/09 06:21:45;;;;;;;0.80;0.80;;;;;;;20.61;62.91;97261.28;5038871;28;20134;-61
2023/08/09 06:24:12;;;;;;;0.90;0.90;;;;;;;21.03;58.97;97274.56;5071907;28;20542;-59
2023/08/09 06:26:38;;;;;;;0.93;0.93;;;;;;;20.99;60.94;97273.84;5039940;28;20149;-59
2023/08/09 06:29:05;;;;;;;0.80;0.80;;;;;;;20.82;58.05;97272.94;5040545;28;20049;-61
2023/08/09 06:31:32;;;;;;;0.80;0.80;;;;;;;20.25;58.41;97192.84;5059705;28;20053;-60
2023/08/09 06:33:59;;;;;;;0.85;0.85;;;;;;;20.80;59.26;97283.06;5059269;28;20106;-64
2023/08/09 06:36:25;;;;;;;0.80;0.80;;;;;;;20.62;59.49;97245.97;5059368;28;20056;-61
2023/08/09 06:38:52;;;;;;;0.80;0.80;;;;;;;20.80;59.46;97263.34;5058163;28;20048;-61
2023/08/09 06:41:21;;;;;;;0.90;0.90;;;;;;;21.31;59.30;97262.69;5059421;28;20052;-62
2023/08/09 06:43:48;;;;;;;0.93;0.93;;;;;;;21.88;55.81;97288.41;5059404;28;20079;-70
2023/08/09 06:46:15;;;;;;;1.00;1.00;;;;;;;22.48;55.76;97269.19;5059637;28;20064;-61
2023/08/09 06:48:42;;;;;;;0.98;0.98;;;;;;;22.41;54.25;97203.19;5043330;28;20053;-59
2023/08/09 06:51:08;;;;;;;1.00;1.00;;;;;;;23.65;53.21;97273.94;5037873;28;20294;-60
2023/08/09 06:53:35;;;;;;;1.02;1.02;;;;;;;23.62;53.06;97269.19;5058941;28;20605;-59
2023/08/09 06:56:03;;;;;;;1.20;1.20;;;;;;;23.69;52.37;97263.31;5059598;28;20326;-58
2023/08/09 06:58:29;;;;;;;1.10;1.10;;;;;;;24.06;52.20;97248.41;5063540;28;20075;-62
2023/08/09 07:00:56;;;;;;;1.08;1.08;;;;;;;22.21;53.48;97126.31;5064008;28;20501;-61
2023/08/09 07:03:23;;;;;;;1.10;1.10;;;;;;;23.43;53.44;97247.56;5062819;28;20078;-59
2023/08/09 07:05:50;;;;;;;1.00;1.00;;;;;;;23.39;53.72;97210.13;5063509;28;20146;-62
2023/08/09 07:08:17;;;;;;;1.10;1.10;;;;;;;23.94;53.25;97246.34;5063925;28;20703;-61
2023/08/09 07:10:43;;;;;;;1.00;1.00;;;;;;;22.84;53.95;97244.44;5062872;28;20060;-59
2023/08/09 07:13:10;;;;;;;1.00;1.00;;;;;;;22.46;54.94;97238.59;5047183;28;20053;-58
2023/08/09 07:15:37;;;;;;;1.00;1.00;;;;;;;22.34;54.18;97240.09;5043203;28;20486;-63
2023/08/09 07:18:03;;;;;;;0.90;0.90;;;;;;;22.06;56.42;97184.41;5043079;28;20075;-61
2023/08/09 07:20:30;;;;;;;0.90;0.90;;;;;;;22.10;53.70;97243.53;5043413;28;20504;-61
2023/08/09 07:22:57;;;;;;;0.90;0.90;;;;;;;20.44;53.32;96927.50;5044235;28;20501;-60
2023/08/09 07:25:24;;;;;;;1.00;1.00;;;;;;;22.46;53.33;97199.06;5043850;28;20072;-64
2023/08/09 07:27:51;;;;;;;1.00;1.00;;;;;;;22.77;53.96;97239.78;5043312;28;20551;-61
2023/08/09 07:30:19;;;;;;;1.00;1.00;;;;;;;23.33;53.89;97234.56;5043722;28;20493;-66
2023/08/09 07:32:47;;;;;;;1.20;1.20;;;;;;;22.81;53.76;97113.34;5036902;28;20060;-66
2023/08/09 07:35:16;;;;;;;1.00;1.00;;;;;;;22.39;52.05;97109.72;5042272;28;20048;-62
2023/08/09 07:37:45;;;;;;;1.08;1.08;;;;;;;22.39;53.50;97202.88;5043787;28;20132;-59
2023/08/09 07:40:13;;;;;;;1.00;1.00;;;;;;;21.12;55.03;96998.66;5043190;28;20081;-61
2023/08/09 07:42:41;;;;;;;1.10;1.10;;;;;;;23.11;54.64;97208.13;5043313;28;20212;-62
2023/08/09 07:45:09;;;;;;;1.10;1.10;;;;;;;22.99;52.23;97203.22;5048141;28;20609;-60
2023/08/09 07:47:37;;;;;;;1.00;1.00;;;;;;;23.48;52.87;97224.38;5078244;28;20048;-60
2023/08/09 07:50:05;;;;;;;1.00;1.00;;;;;;;23.45;52.92;97236.59;5052729;28;20662;-62
2023/08/09 07:52:33;;;;;;;1.00;1.00;;;;;;;23.31;52.44;97203.09;5043408;28;20057;-61
2023/08/09 07:55:00;;;;;;;0.90;0.90;;;;;;;23.76;51.21;97223.47;5051227;28;20059;-60
2023/08/09 07:57:26;;;;;;;1.10;1.10;;;;;;;24.25;50.86;97218.28;5062789;28;20172;-61
2023/08/09 07:59:53;;;;;;;1.10;1.10;;;;;;;24.45;49.13;97221.59;5062519;28;20049;-62
2023/08/09 08:02:28;;;;;;;1.20;1.20;;;;;;;24.65;48.16;97217.22;5063230;28;20052;-62
2023/08/09 08:04:55;;;;;;;1.10;1.10;;;;;;;25.04;47.12;97222.31;5043757;28;20293;-62
2023/08/09 08:07:23;;;;;;;1.10;1.10;;;;;;;24.98;47.28;97184.47;5042200;28;20444;-61
2023/08/09 08:09:50;;;;;;;1.20;1.20;;;;;;;25.62;45.83;97221.75;5041617;28;20053;-64
2023/08/09 08:12:16;;;;;;;1.17;1.17;;;;;;;25.93;44.55;97216.81;5042941;28;20443;-58
2023/08/09 08:14:49;;;;;;;1.53;1.53;;;;;;;25.70;44.89;97149.25;5042642;28;20048;-63
2023/08/09 08:17:16;;;;;;;1.40;1.40;;;;;;;26.19;44.14;97209.69;5042132;28;20055;-60
2023/08/09 08:19:43;;;;;;;1.33;1.33;;;;;;;25.96;43.40;97159.09;5032197;28;20060;-64
2023/08/09 08:22:10;;;;;;;1.20;1.20;;;;;;;26.07;44.32;97196.38;5040974;28;20041;-63
2023/08/09 08:24:37;;;;;;;1.33;1.33;;;;;;;25.69;45.40;97167.56;5042172;28;20147;-59
2023/08/09 08:27:04;;;;;;;1.20;1.20;;;;;;;25.73;44.06;97131.28;5048422;28;20550;-64
2023/08/09 08:29:31;;;;;;;1.40;1.40;;;;;;;26.31;43.43;97201.03;5046517;28;20061;-61
2023/08/09 08:31:58;;;;;;;1.40;1.40;;;;;;;26.01;43.28;97127.28;5054829;28;20057;-64
2023/08/09 08:34:31;;;;;;;1.20;1.20;;;;;;;25.69;43.88;97144.84;5052267;28;20049;-63
2023/08/09 08:36:59;;;;;;;1.40;1.40;;;;;;;26.03;42.54;97156.00;5063144;28;20052;-61
2023/08/09 08:39:29;;;;;;;1.40;1.40;;;;;;;26.64;42.61;97198.41;5046707;28;20057;-62
2023/08/09 08:41:56;;;;;;;1.20;1.20;;;;;;;27.26;41.25;97191.13;5042371;28;20057;-61
2023/08/09 08:44:25;;;;;;;1.50;1.50;;;;;;;25.65;39.48;97016.50;5042689;28;20053;-61
2023/08/09 08:46:52;;;;;;;1.25;1.25;;;;;;;26.17;40.61;97169.59;5048710;28;20101;-61
2023/08/09 08:49:24;;;;;;;1.50;1.50;;;;;;;27.00;40.21;97186.25;5048166;28;20123;-58
2023/08/09 08:51:55;;;;;;;1.65;1.65;;;;;;;27.21;39.99;97188.91;5041258;28;20056;-58
2023/08/09 08:54:23;;;;;;;1.45;1.45;;;;;;;27.11;38.75;97178.03;5044459;28;20045;-59
2023/08/09 08:56:51;;;;;;;1.38;1.38;;;;;;;27.34;38.92;97186.69;5058345;28;20048;-59
2023/08/09 08:59:19;;;;;;;1.30;1.30;;;;;;;27.12;38.74;97188.91;5056713;28;20051;-60
2023/08/09 09:01:47;;;;;;;1.40;1.40;;;;;;;26.86;40.88;97181.22;5038776;28;20571;-62
2023/08/09 09:04:14;;;;;;;1.30;1.30;;;;;;;25.77;43.10;97171.66;5041547;28;20474;-60
2023/08/09 09:06:42;;;;;;;1.30;1.30;;;;;;;25.37;42.72;97148.94;5041828;28;20132;-60
2023/08/09 09:09:11;;;;;;;1.40;1.40;;;;;;;23.50;43.24;96882.53;5041299;28;20431;-60
2023/08/09 09:11:39;;;;;;;1.40;1.40;;;;;;;25.69;44.04;97171.16;5039932;28;20542;-60
2023/08/09 09:14:14;;;;;;;1.08;1.08;;;;;;;26.07;41.78;97148.91;5056945;28;20049;-60
2023/08/09 09:16:42;;;;;;;1.40;1.40;;;;;;;26.16;43.10;97123.34;5041979;28;20499;-59
2023/08/09 09:19:10;;;;;;;1.40;1.40;;;;;;;25.48;43.35;97159.88;5041658;28;20490;-60
2023/08/09 09:21:41;;;;;;;1.30;1.30;;;;;;;25.44;43.70;97160.03;5040909;28;20080;-63
2023/08/09 09:24:09;;;;;;;1.10;1.10;;;;;;;24.09;43.11;96856.84;5041529;28;20151;-61
2023/08/09 09:26:37;;;;;;;1.40;1.40;;;;;;;25.76;43.43;97119.00;5041669;28;20101;-60
2023/08/09 09:29:08;;;;;;;1.23;1.23;;;;;;;25.78;43.33;97147.72;5040639;28;20517;-63
2023/08/09 09:31:40;;;;;;;1.20;1.20;;;;;;;26.02;43.14;97145.91;5041986;28;20542;-62
2023/08/09 09:34:11;;;;;;;1.30;1.30;;;;;;;26.04;42.80;97141.34;5040611;28;20088;-60
2023/08/09 09:36:48;;;;;;;1.30;1.30;;;;;;;25.64;41.88;97077.34;5041002;28;20049;-60
2023/08/09 09:39:15;;;;;;;1.40;1.40;;;;;;;25.13;43.38;97082.66;5040737;28;20400;-62
2023/08/09 09:41:47;;;;;;;1.30;1.30;;;;;;;25.17;43.49;97140.78;5039577;28;20629;-62
2023/08/09 09:44:20;;;;;;;1.17;1.17;;;;;;;24.24;44.33;97024.94;5041618;28;20076;-61
2023/08/09 09:46:53;;;;;;;1.20;1.20;;;;;;;25.22;44.15;97128.84;5041260;28;20056;-62
2023/08/09 09:49:20;;;;;;;1.15;1.15;;;;;;;24.66;43.65;97054.50;5040775;28;20068;-62
2023/08/09 09:51:49;;;;;;;1.23;1.23;;;;;;;25.75;42.42;97126.72;5040785;28;20411;-59
2023/08/09 09:54:16;;;;;;;1.38;1.38;;;;;;;24.46;42.44;96894.63;5040078;28;20055;-60
2023/08/09 09:56:43;;;;;;;1.30;1.30;;;;;;;25.96;41.99;97105.16;5041695;28;20055;-60
2023/08/09 09:59:10;;;;;;;1.20;1.20;;;;;;;25.94;41.55;97119.06;5041146;28;20107;-59
2023/08/09 10:01:41;;;;;;;1.42;1.42;;;;;;;26.12;42.17;97114.22;5041489;28;20053;-59
2023/08/09 10:04:10;;;;;;;1.33;1.33;;;;;;;25.66;41.60;97057.78;5041373;28;20500;-63
2023/08/09 10:06:42;;;;;;;1.20;1.20;;;;;;;25.31;41.92;97089.19;5041688;28;20894;-62
2023/08/09 10:09:10;;;;;;;1.17;1.17;;;;;;;25.87;40.91;97116.50;5041521;28;20203;-61
2023/08/09 10:11:38;;;;;;;1.50;1.50;;;;;;;26.25;40.17;97111.22;5039879;28;20045;-62
2023/08/09 10:14:07;;;;;;;1.30;1.30;;;;;;;26.67;39.49;97066.72;5041266;28;20051;-63
2023/08/09 10:16:36;;;;;;;1.30;1.30;;;;;;;27.32;38.33;97089.63;5041707;28;20509;-60
2023/08/09 10:19:08;;;;;;;1.40;1.40;;;;;;;26.29;40.30;97094.81;5040027;28;20114;-61
2023/08/09 10:21:35;;;;;;;1.52;1.52;;;;;;;26.96;40.06;97064.13;5039591;28;20049;-62
2023/08/09 10:24:07;;;;;;;1.48;1.48;;;;;;;26.27;40.16;97097.34;5040835;28;20661;-59
2023/08/09 10:26:37;;;;;;;1.42;1.42;;;;;;;26.49;40.08;97103.66;5041651;28;20053;-64
2023/08/09 10:29:10;;;;;;;1.58;1.58;;;;;;;26.98;38.58;97050.22;5041842;28;20053;-61
2023/08/09 10:32:02;;;;;;;1.40;1.40;;;;;;;27.18;37.58;97078.91;5041373;28;20456;-59
2023/08/09 10:34:36;;;;;;;1.63;1.63;;;;;;;27.47;38.66;97090.53;5041265;28;20056;-60
2023/08/09 10:37:05;;;;;;;1.50;1.50;;;;;;;26.99;37.69;97090.81;5041505;28;20040;-62
2023/08/09 10:39:34;;;;;;;1.60;1.60;;;;;;;27.44;38.20;97065.84;5041250;28;20049;-61
2023/08/09 10:42:05;;;;;;;1.30;1.30;;;;;;;27.42;37.04;97039.97;5041366;28;20053;-61
2023/08/09 10:44:48;;;;;;;1.40;1.40;;;;;;;26.04;39.06;96967.31;5042719;28;20052;-60
2023/08/09 10:47:18;;;;;;;1.40;1.40;;;;;;;27.34;37.80;97077.78;5059042;28;20079;-58
2023/08/09 10:50:00;;;;;;;1.45;1.45;;;;;;;27.14;38.67;97041.28;5051818;28;20630;-59
2023/08/09 10:52:36;;;;;;;1.60;1.60;;;;;;;26.92;37.88;97077.72;5039690;28;20540;-59
2023/08/09 10:55:18;;;;;;;1.60;1.60;;;;;;;26.79;39.48;97077.13;5051488;28;20056;-61
2023/08/09 10:57:49;;;;;;;1.30;1.30;;;;;;;26.10;39.82;97070.50;5061469;28;20048;-60
2023/08/09 11:00:18;;;;;;;1.20;1.20;;;;;;;26.60;38.55;97067.03;5061614;28;20059;-60
2023/08/09 11:02:55;;;;;;;1.60;1.60;;;;;;;26.95;38.55;97065.41;5060662;28;20044;-59
2023/08/09 11:05:24;;;;;;;1.70;1.70;;;;;;;27.04;39.25;97045.47;5061625;28;20419;-58
2023/08/09 11:07:56;;;;;;;1.50;1.50;;;;;;;27.43;37.59;97052.91;5062051;28;20076;-60
2023/08/09 11:10:49;;;;;;;1.58;1.58;;;;;;;27.47;38.86;97053.53;5060666;28;20147;-60
2023/08/09 11:13:18;;;;;;;1.38;1.38;;;;;;;27.41;38.90;97044.06;5061574;28;20254;-61
2023/08/09 11:15:47;;;;;;;1.70;1.70;;;;;;;27.63;38.97;97050.25;5060897;28;20048;-60
2023/08/09 11:18:15;;;;;;;1.63;1.63;;;;;;;28.23;37.23;97052.91;5060513;28;20049;-61
2023/08/09 11:20:42;;;;;;;1.60;1.60;;;;;;;26.86;37.30;97000.03;5061130;28;20051;-60
2023/08/09 11:23:09;;;;;;;1.60;1.60;;;;;;;28.06;36.66;97038.31;5060751;28;20060;-61
2023/08/09 11:25:39;;;;;;;1.65;1.65;;;;;;;28.25;36.15;96984.78;5059029;28;20526;-63
2023/08/09 11:28:10;;;;;;;1.70;1.70;;;;;;;28.81;35.45;97018.00;5061222;28;20086;-63
2023/08/09 11:30:38;;;;;;;1.58;1.58;;;;;;;27.67;37.29;97035.84;5061644;28;20044;-60
2023/08/09 11:33:06;;;;;;;1.80;1.80;;;;;;;28.20;36.71;96953.38;5061824;28;20048;-60
2023/08/09 11:35:44;;;;;;;1.67;1.67;;;;;;;28.74;35.85;97038.38;5060241;28;20060;-60
2023/08/09 11:38:15;;;;;;;1.60;1.60;;;;;;;28.02;36.19;97026.31;5060338;28;20117;-58
2023/08/09 11:40:49;;;;;;;1.67;1.67;;;;;;;27.83;36.20;96779.97;5060420;28;20057;-61